sensor_id;sensor_type;location;lat;lon;timestamp;pressure;altitude;pressure_sealevel;temperature;humidity
78373;BME280;67656;52.074;4.758;2023-04-15T00:03:57;100861.09;;;6.26;100.00
78373;BME280;67656;52.074;4.758;2023-04-15T00:08:58;100853.38;;;6.12;100.00
78373;BME280;67656;52.074;4.758;2023-04-15T00:13:58;100870.88;;;6.10;100.00
78373;BME280;67656;52.074;4.758;2023-04-15T00:18:58;100873.44;;;6.13;100.00
78373;BME280;67656;52.074;4.758;2023-04-15T00:23:59;100865.28;;;6.44;100.00
78373;BME280;67656;52.074;4.758;2023-04-15T00:28:59;100870.50;;;6.48;100.00
78373;BME280;67656;52.074;4.758;2023-04-15T00:34:00;100869.53;;;6.58;100.00
78373;BME280;67656;52.074;4.758;2023-04-15T00:39:00;100866.22;;;6.39;100.00
78373;BME280;67656;52.074;4.758;2023-04-15T00:44:01;100861.84;;;6.39;100.00
78373;BME280;67656;52.074;4.758;2023-04-15T00:49:03;100866.34;;;6.26;100.00
78373;BME280;67656;52.074;4.758;2023-04-15T00:54:07;100869.03;;;6.22;100.00
78373;BME280;67656;52.074;4.758;2023-04-15T00:59:08;100869.03;;;6.22;100.00
78373;BME280;67656;52.074;4.758;2023-04-15T01:04:09;100865.69;;;6.04;100.00
78373;BME280;67656;52.074;4.758;2023-04-15T01:09:10;100864.72;;;6.16;100.00
78373;BME280;67656;52.074;4.758;2023-04-15T01:14:12;100866.38;;;6.23;100.00
78373;BME280;67656;52.074;4.758;2023-04-15T01:19:15;100863.88;;;6.11;100.00
78373;BME280;67656;52.074;4.758;2023-04-15T01:24:17;100870.13;;;5.90;100.00
78373;BME280;67656;52.074;4.758;2023-04-15T01:29:18;100870.97;;;5.95;100.00
78373;BME280;67656;52.074;4.758;2023-04-15T01:34:19;100874.56;;;5.81;100.00
78373;BME280;67656;52.074;4.758;2023-04-15T01:39:20;100876.53;;;5.53;100.00
78373;BME280;67656;52.074;4.758;2023-04-15T01:44:21;100879.31;;;5.22;100.00
78373;BME280;67656;52.074;4.758;2023-04-15T01:49:21;100878.53;;;5.00;100.00
78373;BME280;67656;52.074;4.758;2023-04-15T01:54:22;100875.09;;;4.95;100.00
78373;BME280;67656;52.074;4.758;2023-04-15T01:59:24;100882.09;;;4.85;100.00
78373;BME280;67656;52.074;4.758;2023-04-15T02:04:24;100890.78;;;4.85;100.00
78373;BME280;67656;52.074;4.758;2023-04-15T02:09:25;100886.50;;;4.67;100.00
78373;BME280;67656;52.074;4.758;2023-04-15T02:14:25;100889.16;;;4.59;100.00
78373;BME280;67656;52.074;4.758;2023-04-15T02:19:28;100892.69;;;4.30;100.00
78373;BME280;67656;52.074;4.758;2023-04-15T02:24:29;100904.00;;;4.50;100.00
78373;BME280;67656;52.074;4.758;2023-04-15T02:29:31;100899.63;;;4.59;100.00
78373;BME280;67656;52.074;4.758;2023-04-15T02:34:31;100907.47;;;4.59;100.00
78373;BME280;67656;52.074;4.758;2023-04-15T02:39:32;100916.09;;;4.74;100.00
78373;BME280;67656;52.074;4.758;2023-04-15T02:44:35;100922.22;;;4.74;100.00
78373;BME280;67656;52.074;4.758;2023-04-15T02:49:38;100918.69;;;4.86;100.00
78373;BME280;67656;52.074;4.758;2023-04-15T02:54:38;100925.63;;;5.06;100.00
78373;BME280;67656;52.074;4.758;2023-04-15T02:59:39;100935.13;;;5.21;100.00
78373;BME280;67656;52.074;4.758;2023-04-15T03:04:39;100944.69;;;5.30;100.00
78373;BME280;67656;52.074;4.758;2023-04-15T03:09:40;100934.25;;;5.19;100.00
78373;BME280;67656;52.074;4.758;2023-04-15T03:14:41;100933.44;;;5.07;100.00
78373;BME280;67656;52.074;4.758;2023-04-15T03:19:42;100930.84;;;5.03;100.00
78373;BME280;67656;52.074;4.758;2023-04-15T03:24:43;100950.94;;;4.95;100.00
78373;BME280;67656;52.074;4.758;2023-04-15T03:29:44;100956.16;;;4.96;100.00
78373;BME280;67656;52.074;4.758;2023-04-15T03:34:46;100957.03;;;4.94;100.00
78373;BME280;67656;52.074;4.758;2023-04-15T03:39:47;100960.53;;;4.89;100.00
78373;BME280;67656;52.074;4.758;2023-04-15T03:44:48;100960.53;;;4.89;100.00
78373;BME280;67656;52.074;4.758;2023-04-15T03:49:48;100977.97;;;4.89;100.00
78373;BME280;67656;52.074;4.758;2023-04-15T03:54:48;100978.84;;;4.92;100.00
78373;BME280;67656;52.074;4.758;2023-04-15T03:59:49;100978.84;;;4.92;100.00
78373;BME280;67656;52.074;4.758;2023-04-15T04:04:49;100985.75;;;5.04;100.00
78373;BME280;67656;52.074;4.758;2023-04-15T04:09:50;100997.97;;;5.08;100.00
78373;BME280;67656;52.074;4.758;2023-04-15T04:14:50;100998.81;;;5.12;100.00
78373;BME280;67656;52.074;4.758;2023-04-15T04:19:50;100997.13;;;5.08;100.00
78373;BME280;67656;52.074;4.758;2023-04-15T04:24:51;101011.06;;;5.01;100.00
78373;BME280;67656;52.074;4.758;2023-04-15T04:29:51;101014.56;;;4.92;100.00
78373;BME280;67656;52.074;4.758;2023-04-15T04:34:52;101023.31;;;4.96;100.00
78373;BME280;67656;52.074;4.758;2023-04-15T04:39:53;101030.25;;;4.87;100.00
78373;BME280;67656;52.074;4.758;2023-04-15T04:44:53;101035.50;;;4.94;100.00
78373;BME280;67656;52.074;4.758;2023-04-15T04:49:53;101047.69;;;5.01;100.00
78373;BME280;67656;52.074;4.758;2023-04-15T04:54:54;101045.09;;;5.02;100.00
78373;BME280;67656;52.074;4.758;2023-04-15T04:59:54;101058.13;;;5.13;100.00
78373;BME280;67656;52.074;4.758;2023-04-15T05:04:55;101071.22;;;5.07;100.00
78373;BME280;67656;52.074;4.758;2023-04-15T05:09:55;101076.47;;;4.96;100.00
78373;BME280;67656;52.074;4.758;2023-04-15T05:14:55;101091.31;;;4.83;100.00
78373;BME280;67656;52.074;4.758;2023-04-15T05:19:56;101102.63;;;4.54;100.00
78373;BME280;67656;52.074;4.758;2023-04-15T05:24:56;101108.66;;;4.24;100.00
78373;BME280;67656;52.074;4.758;2023-04-15T05:29:56;101119.06;;;4.13;100.00
78373;BME280;67656;52.074;4.758;2023-04-15T05:34:57;101124.31;;;4.16;100.00
78373;BME280;67656;52.074;4.758;2023-04-15T05:39:57;101146.13;;;4.27;100.00
78373;BME280;67656;52.074;4.758;2023-04-15T05:44:58;101155.72;;;4.33;100.00
78373;BME280;67656;52.074;4.758;2023-04-15T05:49:58;101161.81;;;4.37;100.00
78373;BME280;67656;52.074;4.758;2023-04-15T05:55:01;101169.72;;;4.51;100.00
78373;BME280;67656;52.074;4.758;2023-04-15T06:00:01;101181.94;;;4.66;100.00
78373;BME280;67656;52.074;4.758;2023-04-15T06:05:09;101193.31;;;4.91;100.00
78373;BME280;67656;52.074;4.758;2023-04-15T06:10:10;101208.13;;;5.12;100.00
78373;BME280;67656;52.074;4.758;2023-04-15T06:15:10;101218.59;;;5.40;100.00
78373;BME280;67656;52.074;4.758;2023-04-15T06:20:11;101228.19;;;5.58;100.00
78373;BME280;67656;52.074;4.758;2023-04-15T06:25:12;101249.97;;;5.80;100.00
78373;BME280;67656;52.074;4.758;2023-04-15T06:30:12;101253.38;;;6.26;100.00
78373;BME280;67656;52.074;4.758;2023-04-15T06:35:15;101251.91;;;7.35;100.00
78373;BME280;67656;52.074;4.758;2023-04-15T06:40:16;101254.63;;;8.17;100.00
78373;BME280;67656;52.074;4.758;2023-04-15T06:45:16;101251.78;;;9.02;100.00
78373;BME280;67656;52.074;4.758;2023-04-15T06:50:17;101269.19;;;9.66;100.00
78373;BME280;67656;52.074;4.758;2023-04-15T06:55:21;101267.19;;;11.09;100.00
78373;BME280;67656;52.074;4.758;2023-04-15T07:00:21;101268.94;;;11.10;100.00
78373;BME280;67656;52.074;4.758;2023-04-15T07:05:22;101278.59;;;10.72;100.00
78373;BME280;67656;52.074;4.758;2023-04-15T07:10:24;101278.41;;;11.57;100.00
78373;BME280;67656;52.074;4.758;2023-04-15T07:15:30;101278.41;;;11.20;100.00
78373;BME280;67656;52.074;4.758;2023-04-15T07:20:30;101280.31;;;12.19;100.00
78373;BME280;67656;52.074;4.758;2023-04-15T07:25:31;101294.44;;;12.51;100.00
78373;BME280;67656;52.074;4.758;2023-04-15T07:30:31;101296.16;;;12.52;100.00
78373;BME280;67656;52.074;4.758;2023-04-15T07:35:32;101302.41;;;12.50;100.00
78373;BME280;67656;52.074;4.758;2023-04-15T07:40:32;101315.94;;;12.07;100.00
78373;BME280;67656;52.074;4.758;2023-04-15T07:45:33;101322.66;;;12.52;100.00
78373;BME280;67656;52.074;4.758;2023-04-15T07:50:33;101339.75;;;13.59;100.00
78373;BME280;67656;52.074;4.758;2023-04-15T07:55:34;101345.78;;;13.35;100.00
78373;BME280;67656;52.074;4.758;2023-04-15T08:00:34;101359.63;;;13.45;100.00
78373;BME280;67656;52.074;4.758;2023-04-15T08:05:35;101371.84;;;12.91;100.00
78373;BME280;67656;52.074;4.758;2023-04-15T08:10:36;101386.00;;;12.90;100.00
78373;BME280;67656;52.074;4.758;2023-04-15T08:15:37;101384.88;;;13.29;100.00
78373;BME280;67656;52.074;4.758;2023-04-15T08:20:37;101394.72;;;13.24;100.00
78373;BME280;67656;52.074;4.758;2023-04-15T08:25:37;101401.69;;;13.28;100.00
78373;BME280;67656;52.074;4.758;2023-04-15T08:30:38;101410.13;;;13.71;100.00
78373;BME280;67656;52.074;4.758;2023-04-15T08:35:38;101417.31;;;13.37;100.00
78373;BME280;67656;52.074;4.758;2023-04-15T08:40:44;101424.47;;;14.71;98.11
78373;BME280;67656;52.074;4.758;2023-04-15T08:45:49;101426.97;;;13.68;100.00
78373;BME280;67656;52.074;4.758;2023-04-15T08:50:50;101428.19;;;13.28;100.00
78373;BME280;67656;52.074;4.758;2023-04-15T08:55:51;101436.53;;;12.82;100.00
78373;BME280;67656;52.074;4.758;2023-04-15T09:00:56;101458.63;;;13.44;100.00
78373;BME280;67656;52.074;4.758;2023-04-15T09:05:56;101464.09;;;13.08;100.00
78373;BME280;67656;52.074;4.758;2023-04-15T09:10:57;101464.53;;;13.82;100.00
78373;BME280;67656;52.074;4.758;2023-04-15T09:16:00;101470.22;;;13.72;100.00
78373;BME280;67656;52.074;4.758;2023-04-15T09:21:18;101476.88;;;14.39;96.17
78373;BME280;67656;52.074;4.758;2023-04-15T09:26:30;101486.97;;;14.54;93.05
78373;BME280;67656;52.074;4.758;2023-04-15T09:31:31;101489.38;;;15.13;89.29
78373;BME280;67656;52.074;4.758;2023-04-15T09:36:55;101504.09;;;13.62;97.14
78373;BME280;67656;52.074;4.758;2023-04-15T09:42:08;101512.03;;;12.99;100.00
78373;BME280;67656;52.074;4.758;2023-04-15T09:47:09;101516.81;;;13.17;100.00
78373;BME280;67656;52.074;4.758;2023-04-15T09:52:12;101522.31;;;13.11;100.00
78373;BME280;67656;52.074;4.758;2023-04-15T09:57:13;101530.81;;;13.23;100.00
78373;BME280;67656;52.074;4.758;2023-04-15T10:02:14;101532.34;;;13.63;96.12
78373;BME280;67656;52.074;4.758;2023-04-15T10:07:20;101534.38;;;13.21;100.00
78373;BME280;67656;52.074;4.758;2023-04-15T10:12:22;101539.75;;;13.51;96.91
78373;BME280;67656;52.074;4.758;2023-04-15T10:17:25;101538.84;;;13.52;100.00
78373;BME280;67656;52.074;4.758;2023-04-15T10:22:28;101550.44;;;14.08;99.31
78373;BME280;67656;52.074;4.758;2023-04-15T10:27:29;101549.59;;;13.48;100.00
78373;BME280;67656;52.074;4.758;2023-04-15T10:32:30;101549.81;;;14.00;100.00
78373;BME280;67656;52.074;4.758;2023-04-15T10:37:36;101558.97;;;13.60;100.00
78373;BME280;67656;52.074;4.758;2023-04-15T10:42:36;101560.78;;;13.88;99.65
78373;BME280;67656;52.074;4.758;2023-04-15T10:47:37;101571.69;;;13.78;99.73
78373;BME280;67656;52.074;4.758;2023-04-15T10:52:41;101579.00;;;13.70;96.88
78373;BME280;67656;52.074;4.758;2023-04-15T10:57:42;101572.53;;;14.37;97.89
78373;BME280;67656;52.074;4.758;2023-04-15T11:02:47;101585.19;;;13.37;100.00
78373;BME280;67656;52.074;4.758;2023-04-15T11:07:56;101584.16;;;13.10;100.00
78373;BME280;67656;52.074;4.758;2023-04-15T11:18:20;101596.06;;;14.20;100.00
78373;BME280;67656;52.074;4.758;2023-04-15T11:28:33;101605.72;;;13.62;100.00
78373;BME280;67656;52.074;4.758;2023-04-15T11:33:34;101612.84;;;13.62;100.00
78373;BME280;67656;52.074;4.758;2023-04-15T11:38:34;101622.88;;;13.50;100.00
78373;BME280;67656;52.074;4.758;2023-04-15T11:43:34;101616.78;;;14.37;97.66
78373;BME280;67656;52.074;4.758;2023-04-15T11:48:35;101625.63;;;14.37;99.58
78373;BME280;67656;52.074;4.758;2023-04-15T11:53:52;101631.16;;;14.01;100.00
78373;BME280;67656;52.074;4.758;2023-04-15T11:58:54;101633.78;;;13.38;100.00
78373;BME280;67656;52.074;4.758;2023-04-15T12:03:55;101638.91;;;14.09;100.00
78373;BME280;67656;52.074;4.758;2023-04-15T12:09:16;101647.03;;;13.38;100.00
78373;BME280;67656;52.074;4.758;2023-04-15T12:14:23;101652.72;;;12.89;100.00
78373;BME280;67656;52.074;4.758;2023-04-15T12:19:40;101653.22;;;13.39;100.00
78373;BME280;67656;52.074;4.758;2023-04-15T12:24:42;101662.69;;;13.80;94.60
78373;BME280;67656;52.074;4.758;2023-04-15T12:29:43;101674.13;;;14.14;92.87
78373;BME280;67656;52.074;4.758;2023-04-15T12:34:49;101673.81;;;14.25;96.19
78373;BME280;67656;52.074;4.758;2023-04-15T12:39:50;101673.66;;;13.68;100.00
78373;BME280;67656;52.074;4.758;2023-04-15T12:44:50;101680.84;;;13.96;92.90
78373;BME280;67656;52.074;4.758;2023-04-15T12:49:51;101697.50;;;14.31;93.53
78373;BME280;67656;52.074;4.758;2023-04-15T12:54:52;101706.19;;;13.42;96.83
78373;BME280;67656;52.074;4.758;2023-04-15T12:59:52;101703.09;;;13.59;97.54
78373;BME280;67656;52.074;4.758;2023-04-15T13:04:53;101709.88;;;13.69;94.39
78373;BME280;67656;52.074;4.758;2023-04-15T13:09:53;101712.94;;;13.17;97.54
78373;BME280;67656;52.074;4.758;2023-04-15T13:14:54;101723.81;;;13.77;98.29
78373;BME280;67656;52.074;4.758;2023-04-15T13:19:54;101723.25;;;13.66;97.59
78373;BME280;67656;52.074;4.758;2023-04-15T13:24:55;101731.19;;;13.31;100.00
78373;BME280;67656;52.074;4.758;2023-04-15T13:29:55;101723.44;;;13.58;94.72
78373;BME280;67656;52.074;4.758;2023-04-15T13:34:56;101744.44;;;13.30;99.91
78373;BME280;67656;52.074;4.758;2023-04-15T13:39:59;101739.25;;;13.27;96.87
78373;BME280;67656;52.074;4.758;2023-04-15T13:44:59;101752.41;;;13.30;96.10
78373;BME280;67656;52.074;4.758;2023-04-15T13:50:00;101747.19;;;13.63;96.81
78373;BME280;67656;52.074;4.758;2023-04-15T13:55:01;101765.69;;;13.99;96.66
78373;BME280;67656;52.074;4.758;2023-04-15T14:00:02;101766.78;;;13.57;96.57
78373;BME280;67656;52.074;4.758;2023-04-15T14:05:07;101779.69;;;13.35;95.82
78373;BME280;67656;52.074;4.758;2023-04-15T14:10:08;101783.19;;;13.73;96.68
78373;BME280;67656;52.074;4.758;2023-04-15T14:15:08;101790.13;;;12.66;100.00
78373;BME280;67656;52.074;4.758;2023-04-15T14:20:09;101794.34;;;12.31;100.00
78373;BME280;67656;52.074;4.758;2023-04-15T14:25:10;101800.06;;;12.09;100.00
78373;BME280;67656;52.074;4.758;2023-04-15T14:30:10;101802.09;;;12.41;100.00
78373;BME280;67656;52.074;4.758;2023-04-15T14:35:11;101811.28;;;11.72;100.00
78373;BME280;67656;52.074;4.758;2023-04-15T14:40:11;101818.78;;;12.45;100.00
78373;BME280;67656;52.074;4.758;2023-04-15T14:45:12;101822.84;;;12.62;100.00
78373;BME280;67656;52.074;4.758;2023-04-15T14:50:12;101823.34;;;12.79;100.00
78373;BME280;67656;52.074;4.758;2023-04-15T14:55:13;101847.06;;;11.93;100.00
78373;BME280;67656;52.074;4.758;2023-04-15T15:00:13;101860.38;;;12.40;100.00
78373;BME280;67656;52.074;4.758;2023-04-15T15:05:14;101863.72;;;11.45;100.00
78373;BME280;67656;52.074;4.758;2023-04-15T15:10:14;101880.06;;;11.68;100.00
78373;BME280;67656;52.074;4.758;2023-04-15T15:15:15;101873.56;;;11.33;100.00
78373;BME280;67656;52.074;4.758;2023-04-15T15:20:16;101871.78;;;11.92;100.00
78373;BME280;67656;52.074;4.758;2023-04-15T15:25:16;101886.44;;;12.13;100.00
78373;BME280;67656;52.074;4.758;2023-04-15T15:30:17;101882.66;;;11.73;100.00
78373;BME280;67656;52.074;4.758;2023-04-15T15:35:17;101890.13;;;11.45;100.00
78373;BME280;67656;52.074;4.758;2023-04-15T15:40:18;101892.41;;;11.09;100.00
78373;BME280;67656;52.074;4.758;2023-04-15T15:45:18;101894.91;;;11.18;100.00
78373;BME280;67656;52.074;4.758;2023-04-15T15:50:19;101902.00;;;11.75;100.00
78373;BME280;67656;52.074;4.758;2023-04-15T15:55:19;101915.03;;;11.89;100.00
78373;BME280;67656;52.074;4.758;2023-04-15T16:00:20;101915.22;;;11.77;100.00
78373;BME280;67656;52.074;4.758;2023-04-15T16:05:20;101922.94;;;11.31;100.00
78373;BME280;67656;52.074;4.758;2023-04-15T16:10:20;101940.03;;;11.68;100.00
78373;BME280;67656;52.074;4.758;2023-04-15T16:15:22;101956.25;;;11.42;100.00
78373;BME280;67656;52.074;4.758;2023-04-15T16:20:25;101964.25;;;10.62;100.00
78373;BME280;67656;52.074;4.758;2023-04-15T16:25:26;101973.84;;;10.69;100.00
78373;BME280;67656;52.074;4.758;2023-04-15T16:30:26;101972.94;;;10.73;100.00
78373;BME280;67656;52.074;4.758;2023-04-15T16:35:27;101972.84;;;10.83;100.00
78373;BME280;67656;52.074;4.758;2023-04-15T16:40:27;101976.88;;;11.13;100.00
78373;BME280;67656;52.074;4.758;2023-04-15T16:45:30;101983.84;;;11.22;100.00
78373;BME280;67656;52.074;4.758;2023-04-15T16:50:30;102003.00;;;10.60;100.00
78373;BME280;67656;52.074;4.758;2023-04-15T16:55:31;102026.09;;;10.28;100.00
78373;BME280;67656;52.074;4.758;2023-04-15T17:00:31;102018.31;;;10.13;100.00
78373;BME280;67656;52.074;4.758;2023-04-15T17:05:32;102013.84;;;10.23;100.00
78373;BME280;67656;52.074;4.758;2023-04-15T17:10:32;102016.41;;;10.30;100.00
78373;BME280;67656;52.074;4.758;2023-04-15T17:15:33;102031.63;;;9.93;100.00
78373;BME280;67656;52.074;4.758;2023-04-15T17:20:33;102020.38;;;9.64;100.00
78373;BME280;67656;52.074;4.758;2023-04-15T17:25:34;102031.91;;;9.34;100.00
78373;BME280;67656;52.074;4.758;2023-04-15T17:30:34;102046.00;;;9.25;100.00
78373;BME280;67656;52.074;4.758;2023-04-15T17:35:34;102046.91;;;9.10;100.00
78373;BME280;67656;52.074;4.758;2023-04-15T17:40:35;102046.94;;;8.88;100.00
78373;BME280;67656;52.074;4.758;2023-04-15T17:45:35;102051.38;;;8.54;100.00
78373;BME280;67656;52.074;4.758;2023-04-15T17:50:36;102059.28;;;8.49;100.00
78373;BME280;67656;52.074;4.758;2023-04-15T17:55:36;102063.66;;;8.50;100.00
78373;BME280;67656;52.074;4.758;2023-04-15T18:00:37;102068.03;;;8.50;100.00
78373;BME280;67656;52.074;4.758;2023-04-15T18:05:37;102082.00;;;8.25;100.00
78373;BME280;67656;52.074;4.758;2023-04-15T18:10:38;102090.69;;;7.95;100.00
78373;BME280;67656;52.074;4.758;2023-04-15T18:15:38;102095.03;;;7.79;100.00
78373;BME280;67656;52.074;4.758;2023-04-15T18:20:39;102090.66;;;7.75;100.00
78373;BME280;67656;52.074;4.758;2023-04-15T18:25:39;102108.97;;;7.59;100.00
78373;BME280;67656;52.074;4.758;2023-04-15T18:30:40;102112.41;;;7.47;100.00
78373;BME280;67656;52.074;4.758;2023-04-15T18:35:40;102122.91;;;7.46;100.00
78373;BME280;67656;52.074;4.758;2023-04-15T18:40:41;102128.13;;;7.36;100.00
78373;BME280;67656;52.074;4.758;2023-04-15T18:45:41;102143.03;;;7.42;100.00
78373;BME280;67656;52.074;4.758;2023-04-15T18:50:42;102150.03;;;7.40;100.00
78373;BME280;67656;52.074;4.758;2023-04-15T18:55:42;102160.47;;;7.32;100.00
78373;BME280;67656;52.074;4.758;2023-04-15T19:00:43;102162.19;;;7.24;100.00
78373;BME280;67656;52.074;4.758;2023-04-15T19:05:43;102168.31;;;7.23;100.00
78373;BME280;67656;52.074;4.758;2023-04-15T19:10:43;102169.94;;;7.09;100.00
78373;BME280;67656;52.074;4.758;2023-04-15T19:15:44;102184.84;;;7.16;100.00
78373;BME280;67656;52.074;4.758;2023-04-15T19:20:44;102184.88;;;7.19;100.00
78373;BME280;67656;52.074;4.758;2023-04-15T19:25:45;102178.78;;;7.20;100.00
78373;BME280;67656;52.074;4.758;2023-04-15T19:30:45;102186.59;;;7.14;100.00
78373;BME280;67656;52.074;4.758;2023-04-15T19:35:45;102188.28;;;7.04;100.00
78373;BME280;67656;52.074;4.758;2023-04-15T19:40:46;102197.84;;;6.97;100.00
78373;BME280;67656;52.074;4.758;2023-04-15T19:45:46;102201.38;;;7.02;100.00
78373;BME280;67656;52.074;4.758;2023-04-15T19:50:47;102214.50;;;7.01;100.00
78373;BME280;67656;52.074;4.758;2023-04-15T19:55:47;102208.34;;;6.97;100.00
78373;BME280;67656;52.074;4.758;2023-04-15T20:00:48;102211.78;;;6.93;100.00
78373;BME280;67656;52.074;4.758;2023-04-15T20:05:48;102220.56;;;6.95;100.00
78373;BME280;67656;52.074;4.758;2023-04-15T20:10:48;102210.84;;;6.88;100.00
78373;BME280;67656;52.074;4.758;2023-04-15T20:15:49;102217.00;;;6.90;100.00
78373;BME280;67656;52.074;4.758;2023-04-15T20:20:49;102226.59;;;6.86;100.00
78373;BME280;67656;52.074;4.758;2023-04-15T20:25:50;102213.47;;;6.88;100.00
78373;BME280;67656;52.074;4.758;2023-04-15T20:30:50;102216.09;;;6.88;100.00
78373;BME280;67656;52.074;4.758;2023-04-15T20:35:51;102222.25;;;6.90;100.00
78373;BME280;67656;52.074;4.758;2023-04-15T20:40:51;102216.13;;;6.89;100.00
78373;BME280;67656;52.074;4.758;2023-04-15T20:45:51;102214.41;;;6.95;100.00
78373;BME280;67656;52.074;4.758;2023-04-15T20:50:54;102217.94;;;6.95;100.00
78373;BME280;67656;52.074;4.758;2023-04-15T20:55:54;102218.81;;;6.94;100.00
78373;BME280;67656;52.074;4.758;2023-04-15T21:00:54;102215.34;;;6.98;100.00
78373;BME280;67656;52.074;4.758;2023-04-15T21:05:55;102223.22;;;6.98;100.00
78373;BME280;67656;52.074;4.758;2023-04-15T21:10:56;102231.09;;;7.01;100.00
78373;BME280;67656;52.074;4.758;2023-04-15T21:15:56;102232.03;;;7.05;100.00
78373;BME280;67656;52.074;4.758;2023-04-15T21:21:00;102229.44;;;7.10;100.00
78373;BME280;67656;52.074;4.758;2023-04-15T21:26:01;102232.06;;;7.10;100.00
78373;BME280;67656;52.074;4.758;2023-04-15T21:31:02;102237.34;;;7.11;100.00
78373;BME280;67656;52.074;4.758;2023-04-15T21:36:02;102238.22;;;7.15;100.00
78373;BME280;67656;52.074;4.758;2023-04-15T21:41:03;102238.22;;;7.15;100.00
78373;BME280;67656;52.074;4.758;2023-04-15T21:46:04;102247.91;;;7.20;100.00
78373;BME280;67656;52.074;4.758;2023-04-15T21:51:07;102251.44;;;7.22;100.00
78373;BME280;67656;52.074;4.758;2023-04-15T21:56:08;102263.66;;;7.19;100.00
78373;BME280;67656;52.074;4.758;2023-04-15T22:01:08;102261.06;;;7.22;100.00
78373;BME280;67656;52.074;4.758;2023-04-15T22:06:08;102267.19;;;7.21;100.00
78373;BME280;67656;52.074;4.758;2023-04-15T22:11:09;102273.34;;;7.23;100.00
78373;BME280;67656;52.074;4.758;2023-04-15T22:16:09;102275.97;;;7.23;100.00
78373;BME280;67656;52.074;4.758;2023-04-15T22:21:11;102269.81;;;7.21;100.00
78373;BME280;67656;52.074;4.758;2023-04-15T22:26:12;102270.72;;;7.25;100.00
78373;BME280;67656;52.074;4.758;2023-04-15T22:31:12;102273.34;;;7.26;100.00
78373;BME280;67656;52.074;4.758;2023-04-15T22:36:13;102276.03;;;7.31;100.00
78373;BME280;67656;52.074;4.758;2023-04-15T22:41:13;102271.63;;;7.30;100.00
78373;BME280;67656;52.074;4.758;2023-04-15T22:46:13;102281.31;;;7.37;100.00
78373;BME280;67656;52.074;4.758;2023-04-15T22:51:20;102281.31;;;7.35;100.00
78373;BME280;67656;52.074;4.758;2023-04-15T22:56:21;102293.59;;;7.40;100.00
78373;BME280;67656;52.074;4.758;2023-04-15T23:01:22;102297.06;;;7.37;100.00
78373;BME280;67656;52.074;4.758;2023-04-15T23:06:22;102303.25;;;7.44;100.00
78373;BME280;67656;52.074;4.758;2023-04-15T23:11:23;102299.69;;;7.35;100.00
78373;BME280;67656;52.074;4.758;2023-04-15T23:16:23;102303.19;;;7.37;100.00
78373;BME280;67656;52.074;4.758;2023-04-15T23:21:24;102313.69;;;7.34;100.00
78373;BME280;67656;52.074;4.758;2023-04-15T23:26:24;102328.63;;;7.40;100.00
78373;BME280;67656;52.074;4.758;2023-04-15T23:31:24;102324.19;;;7.37;100.00
78373;BME280;67656;52.074;4.758;2023-04-15T23:36:28;102326.81;;;7.36;100.00
78373;BME280;67656;52.074;4.758;2023-04-15T23:41:29;102332.94;;;7.33;100.00
78373;BME280;67656;52.074;4.758;2023-04-15T23:46:29;102345.19;;;7.31;100.00
78373;BME280;67656;52.074;4.758;2023-04-15T23:51:29;102334.59;;;7.22;100.00
78373;BME280;67656;52.074;4.758;2023-04-15T23:56:30;102341.56;;;7.20;100.00
